Terminal Aerodrome Forecast
Issued by NWS

Home | Current Version | Previous Version | Text Only | Print | Product List | Glossary On
Versions: 1 2 3 4 5 6 7 8 9 10 11 12 13 14 15 16 17
000
FTAK31 PAJN 270602 AAA
TAFAPG
TAF AMD
PAPG 270602Z 2706/2806 10004KT P6SM VCSH FEW035 OVC060
     FM270800 11004KT P6SM -RASN SCT020 OVC040 WS020/14025KT
     FM271800 11010KT 6SM -RA BR OVC020 WS020/14030KT
     FM272200 12008KT 4SM -SHRA BR OVC015 WS020/14025KT
     FM280200 VRB04KT P6SM -SHRA OVC025
      AMD NOT SKED=

USA.gov is the U.S. government's official web portal to all federal, state and local government web resources and services.